sensor_id;sensor_type;location;lat;lon;timestamp;temperature;humidity
40670;DHT22;26355;45.528;9.234;2023-03-31T00:01:59;16.20;99.90
40670;DHT22;26355;45.528;9.234;2023-03-31T00:04:26;16.20;99.90
40670;DHT22;26355;45.528;9.234;2023-03-31T00:06:52;16.20;99.90
40670;DHT22;26355;45.528;9.234;2023-03-31T00:09:19;16.30;99.90
40670;DHT22;26355;45.528;9.234;2023-03-31T00:11:47;16.30;99.90
40670;DHT22;26355;45.528;9.234;2023-03-31T00:14:14;16.30;99.90
40670;DHT22;26355;45.528;9.234;2023-03-31T00:16:42;16.30;99.90
40670;DHT22;26355;45.528;9.234;2023-03-31T00:19:08;16.30;99.90
40670;DHT22;26355;45.528;9.234;2023-03-31T00:21:43;16.40;99.90
40670;DHT22;26355;45.528;9.234;2023-03-31T00:24:10;16.30;99.90
40670;DHT22;26355;45.528;9.234;2023-03-31T00:26:36;16.30;99.90
40670;DHT22;26355;45.528;9.234;2023-03-31T00:29:04;16.30;99.90
40670;DHT22;26355;45.528;9.234;2023-03-31T00:31:30;16.30;99.90
40670;DHT22;26355;45.528;9.234;2023-03-31T00:33:56;16.30;99.90
40670;DHT22;26355;45.528;9.234;2023-03-31T00:36:22;16.30;99.90
40670;DHT22;26355;45.528;9.234;2023-03-31T00:39:00;16.10;99.90
40670;DHT22;26355;45.528;9.234;2023-03-31T00:41:32;16.20;99.90
40670;DHT22;26355;45.528;9.234;2023-03-31T00:46:54;16.20;99.90
40670;DHT22;26355;45.528;9.234;2023-03-31T00:49:26;16.20;99.90
40670;DHT22;26355;45.528;9.234;2023-03-31T00:51:54;16.20;99.90
40670;DHT22;26355;45.528;9.234;2023-03-31T00:54:23;16.20;99.90
40670;DHT22;26355;45.528;9.234;2023-03-31T00:56:51;16.30;99.90
40670;DHT22;26355;45.528;9.234;2023-03-31T01:02:05;16.10;99.90
40670;DHT22;26355;45.528;9.234;2023-03-31T01:04:35;16.20;99.90
40670;DHT22;26355;45.528;9.234;2023-03-31T01:09:57;16.10;99.90
40670;DHT22;26355;45.528;9.234;2023-03-31T01:12:26;16.10;99.90
40670;DHT22;26355;45.528;9.234;2023-03-31T01:14:52;16.10;99.90
40670;DHT22;26355;45.528;9.234;2023-03-31T01:17:20;15.90;99.90
40670;DHT22;26355;45.528;9.234;2023-03-31T01:19:58;15.90;99.90
40670;DHT22;26355;45.528;9.234;2023-03-31T01:31:51;16.00;99.90
40670;DHT22;26355;45.528;9.234;2023-03-31T01:45:40;16.00;99.90
40670;DHT22;26355;45.528;9.234;2023-03-31T01:48:11;16.00;99.90
40670;DHT22;26355;45.528;9.234;2023-03-31T01:59:17;15.90;99.90
40670;DHT22;26355;45.528;9.234;2023-03-31T02:04:30;15.90;99.90
40670;DHT22;26355;45.528;9.234;2023-03-31T02:07:02;16.00;99.90
40670;DHT22;26355;45.528;9.234;2023-03-31T02:09:32;16.00;99.90
40670;DHT22;26355;45.528;9.234;2023-03-31T02:12:02;16.00;99.90
40670;DHT22;26355;45.528;9.234;2023-03-31T02:14:30;16.10;99.90
40670;DHT22;26355;45.528;9.234;2023-03-31T02:16:57;16.00;99.90
40670;DHT22;26355;45.528;9.234;2023-03-31T02:19:30;16.00;99.90
40670;DHT22;26355;45.528;9.234;2023-03-31T02:21:57;15.90;99.90
40670;DHT22;26355;45.528;9.234;2023-03-31T02:24:25;15.90;99.90
40670;DHT22;26355;45.528;9.234;2023-03-31T02:27:02;15.80;99.90
40670;DHT22;26355;45.528;9.234;2023-03-31T02:29:29;16.00;99.90
40670;DHT22;26355;45.528;9.234;2023-03-31T02:32:03;15.90;99.90
40670;DHT22;26355;45.528;9.234;2023-03-31T02:34:31;15.90;99.90
40670;DHT22;26355;45.528;9.234;2023-03-31T02:36:57;15.90;99.90
40670;DHT22;26355;45.528;9.234;2023-03-31T02:39:26;16.00;99.90
40670;DHT22;26355;45.528;9.234;2023-03-31T02:41:53;16.00;99.90
40670;DHT22;26355;45.528;9.234;2023-03-31T02:44:20;15.90;99.90
40670;DHT22;26355;45.528;9.234;2023-03-31T02:46:46;15.80;99.90
40670;DHT22;26355;45.528;9.234;2023-03-31T02:49:12;15.80;99.90
40670;DHT22;26355;45.528;9.234;2023-03-31T02:51:54;15.80;99.90
40670;DHT22;26355;45.528;9.234;2023-03-31T03:09:03;15.70;99.90
40670;DHT22;26355;45.528;9.234;2023-03-31T03:19:43;15.70;99.90
40670;DHT22;26355;45.528;9.234;2023-03-31T03:22:14;15.70;99.90
40670;DHT22;26355;45.528;9.234;2023-03-31T03:24:40;15.80;99.90
40670;DHT22;26355;45.528;9.234;2023-03-31T03:27:06;15.70;99.90
40670;DHT22;26355;45.528;9.234;2023-03-31T03:29:32;15.70;99.90
40670;DHT22;26355;45.528;9.234;2023-03-31T03:31:58;15.70;99.90
40670;DHT22;26355;45.528;9.234;2023-03-31T03:34:23;15.70;99.90
40670;DHT22;26355;45.528;9.234;2023-03-31T03:36:49;15.80;99.90
40670;DHT22;26355;45.528;9.234;2023-03-31T03:39:16;15.80;99.90
40670;DHT22;26355;45.528;9.234;2023-03-31T03:41:41;15.80;99.90
40670;DHT22;26355;45.528;9.234;2023-03-31T03:44:07;15.90;99.90
40670;DHT22;26355;45.528;9.234;2023-03-31T03:46:32;15.90;99.90
40670;DHT22;26355;45.528;9.234;2023-03-31T03:48:58;15.90;99.90
40670;DHT22;26355;45.528;9.234;2023-03-31T03:51:24;15.90;99.90
40670;DHT22;26355;45.528;9.234;2023-03-31T03:53:49;16.00;99.90
40670;DHT22;26355;45.528;9.234;2023-03-31T03:56:15;16.00;99.90
40670;DHT22;26355;45.528;9.234;2023-03-31T03:58:40;15.90;99.90
40670;DHT22;26355;45.528;9.234;2023-03-31T04:01:06;15.90;99.90
40670;DHT22;26355;45.528;9.234;2023-03-31T04:03:32;15.90;99.90
40670;DHT22;26355;45.528;9.234;2023-03-31T04:05:57;15.90;99.90
40670;DHT22;26355;45.528;9.234;2023-03-31T04:08:23;15.90;99.90
40670;DHT22;26355;45.528;9.234;2023-03-31T04:10:49;15.80;99.90
40670;DHT22;26355;45.528;9.234;2023-03-31T04:13:15;15.80;99.90
40670;DHT22;26355;45.528;9.234;2023-03-31T04:15:41;15.90;99.90
40670;DHT22;26355;45.528;9.234;2023-03-31T04:18:07;15.90;99.90
40670;DHT22;26355;45.528;9.234;2023-03-31T04:20:37;15.90;99.90
40670;DHT22;26355;45.528;9.234;2023-03-31T04:23:04;15.90;99.90
40670;DHT22;26355;45.528;9.234;2023-03-31T04:25:34;15.90;99.90
40670;DHT22;26355;45.528;9.234;2023-03-31T04:28:03;15.90;99.90
40670;DHT22;26355;45.528;9.234;2023-03-31T04:33:15;15.80;99.90
40670;DHT22;26355;45.528;9.234;2023-03-31T04:35:41;15.80;99.90
40670;DHT22;26355;45.528;9.234;2023-03-31T04:38:17;15.90;99.90
40670;DHT22;26355;45.528;9.234;2023-03-31T04:40:48;15.80;99.90
40670;DHT22;26355;45.528;9.234;2023-03-31T04:43:15;15.70;99.90
40670;DHT22;26355;45.528;9.234;2023-03-31T04:45:41;15.80;99.90
40670;DHT22;26355;45.528;9.234;2023-03-31T04:48:07;15.80;99.90
40670;DHT22;26355;45.528;9.234;2023-03-31T04:50:33;15.80;99.90
40670;DHT22;26355;45.528;9.234;2023-03-31T04:52:59;15.70;99.90
40670;DHT22;26355;45.528;9.234;2023-03-31T04:55:24;15.70;99.90
40670;DHT22;26355;45.528;9.234;2023-03-31T04:57:50;15.80;99.90
40670;DHT22;26355;45.528;9.234;2023-03-31T05:00:16;15.80;99.90
40670;DHT22;26355;45.528;9.234;2023-03-31T05:02:42;15.80;99.90
40670;DHT22;26355;45.528;9.234;2023-03-31T05:05:08;15.80;99.90
40670;DHT22;26355;45.528;9.234;2023-03-31T05:07:35;15.70;99.90
40670;DHT22;26355;45.528;9.234;2023-03-31T05:10:00;15.80;99.90
40670;DHT22;26355;45.528;9.234;2023-03-31T05:12:26;15.80;99.90
40670;DHT22;26355;45.528;9.234;2023-03-31T05:14:52;15.80;99.90
40670;DHT22;26355;45.528;9.234;2023-03-31T05:17:17;15.80;99.90
40670;DHT22;26355;45.528;9.234;2023-03-31T05:19:43;15.90;99.90
40670;DHT22;26355;45.528;9.234;2023-03-31T05:22:09;15.80;99.90
40670;DHT22;26355;45.528;9.234;2023-03-31T05:24:35;15.80;99.90
40670;DHT22;26355;45.528;9.234;2023-03-31T05:27:01;15.80;99.90
40670;DHT22;26355;45.528;9.234;2023-03-31T05:29:26;16.00;99.90
40670;DHT22;26355;45.528;9.234;2023-03-31T05:31:52;16.00;99.90
40670;DHT22;26355;45.528;9.234;2023-03-31T05:34:36;16.20;99.90
40670;DHT22;26355;45.528;9.234;2023-03-31T05:37:02;16.20;99.90
40670;DHT22;26355;45.528;9.234;2023-03-31T05:39:27;16.30;99.90
40670;DHT22;26355;45.528;9.234;2023-03-31T05:41:58;16.30;99.90
40670;DHT22;26355;45.528;9.234;2023-03-31T05:44:23;16.40;99.90
40670;DHT22;26355;45.528;9.234;2023-03-31T05:46:50;16.40;99.90
40670;DHT22;26355;45.528;9.234;2023-03-31T05:49:16;16.50;99.90
40670;DHT22;26355;45.528;9.234;2023-03-31T05:51:42;16.70;99.90
40670;DHT22;26355;45.528;9.234;2023-03-31T05:54:07;16.70;99.90
40670;DHT22;26355;45.528;9.234;2023-03-31T05:56:33;16.70;99.90
40670;DHT22;26355;45.528;9.234;2023-03-31T05:59:00;16.70;99.90
40670;DHT22;26355;45.528;9.234;2023-03-31T06:01:26;16.80;99.90
40670;DHT22;26355;45.528;9.234;2023-03-31T06:03:51;16.80;99.90
40670;DHT22;26355;45.528;9.234;2023-03-31T06:06:17;16.70;99.90
40670;DHT22;26355;45.528;9.234;2023-03-31T06:08:45;16.60;99.90
40670;DHT22;26355;45.528;9.234;2023-03-31T06:11:14;16.60;99.90
40670;DHT22;26355;45.528;9.234;2023-03-31T06:13:40;16.60;99.90
40670;DHT22;26355;45.528;9.234;2023-03-31T06:16:08;16.60;99.90
40670;DHT22;26355;45.528;9.234;2023-03-31T06:18:34;16.60;99.90
40670;DHT22;26355;45.528;9.234;2023-03-31T06:21:00;16.60;99.90
40670;DHT22;26355;45.528;9.234;2023-03-31T06:23:26;16.60;99.90
40670;DHT22;26355;45.528;9.234;2023-03-31T06:25:52;16.60;99.90
40670;DHT22;26355;45.528;9.234;2023-03-31T06:28:18;16.50;99.90
40670;DHT22;26355;45.528;9.234;2023-03-31T06:30:44;16.50;99.90
40670;DHT22;26355;45.528;9.234;2023-03-31T06:33:09;16.40;99.90
40670;DHT22;26355;45.528;9.234;2023-03-31T06:35:39;16.50;99.90
40670;DHT22;26355;45.528;9.234;2023-03-31T06:38:06;16.50;99.90
40670;DHT22;26355;45.528;9.234;2023-03-31T06:40:31;16.40;99.90
40670;DHT22;26355;45.528;9.234;2023-03-31T06:42:58;16.50;99.90
40670;DHT22;26355;45.528;9.234;2023-03-31T06:45:24;16.60;99.90
40670;DHT22;26355;45.528;9.234;2023-03-31T06:47:49;16.50;99.90
40670;DHT22;26355;45.528;9.234;2023-03-31T06:50:15;16.50;99.90
40670;DHT22;26355;45.528;9.234;2023-03-31T06:52:41;16.50;99.90
40670;DHT22;26355;45.528;9.234;2023-03-31T06:55:07;16.50;99.90
40670;DHT22;26355;45.528;9.234;2023-03-31T06:57:33;16.50;99.90
40670;DHT22;26355;45.528;9.234;2023-03-31T06:59:59;16.50;99.90
40670;DHT22;26355;45.528;9.234;2023-03-31T07:02:25;16.40;99.90
40670;DHT22;26355;45.528;9.234;2023-03-31T07:04:51;16.50;99.90
40670;DHT22;26355;45.528;9.234;2023-03-31T07:07:17;16.40;99.90
40670;DHT22;26355;45.528;9.234;2023-03-31T07:09:42;16.50;99.90
40670;DHT22;26355;45.528;9.234;2023-03-31T07:12:08;16.50;99.90
40670;DHT22;26355;45.528;9.234;2023-03-31T07:14:35;16.50;99.90
40670;DHT22;26355;45.528;9.234;2023-03-31T07:17:00;16.00;99.90
40670;DHT22;26355;45.528;9.234;2023-03-31T07:19:26;16.60;99.90
40670;DHT22;26355;45.528;9.234;2023-03-31T07:21:51;16.50;99.90
40670;DHT22;26355;45.528;9.234;2023-03-31T07:24:18;16.50;99.90
40670;DHT22;26355;45.528;9.234;2023-03-31T07:26:43;16.60;99.90
40670;DHT22;26355;45.528;9.234;2023-03-31T07:29:09;16.60;99.90
40670;DHT22;26355;45.528;9.234;2023-03-31T07:31:35;16.70;99.90
40670;DHT22;26355;45.528;9.234;2023-03-31T07:34:02;16.70;99.90
40670;DHT22;26355;45.528;9.234;2023-03-31T07:36:28;16.80;99.90
40670;DHT22;26355;45.528;9.234;2023-03-31T07:38:54;16.70;99.90
40670;DHT22;26355;45.528;9.234;2023-03-31T07:41:20;16.80;99.90
40670;DHT22;26355;45.528;9.234;2023-03-31T07:43:47;16.80;99.90
40670;DHT22;26355;45.528;9.234;2023-03-31T07:46:18;16.80;99.90
40670;DHT22;26355;45.528;9.234;2023-03-31T07:48:44;16.80;99.90
40670;DHT22;26355;45.528;9.234;2023-03-31T07:51:12;16.70;99.90
40670;DHT22;26355;45.528;9.234;2023-03-31T07:53:38;16.70;99.90
40670;DHT22;26355;45.528;9.234;2023-03-31T07:56:03;16.80;99.90
40670;DHT22;26355;45.528;9.234;2023-03-31T07:58:29;16.80;99.90
40670;DHT22;26355;45.528;9.234;2023-03-31T08:00:55;17.00;99.90
40670;DHT22;26355;45.528;9.234;2023-03-31T08:03:20;17.00;99.90
40670;DHT22;26355;45.528;9.234;2023-03-31T08:05:46;17.10;99.90
40670;DHT22;26355;45.528;9.234;2023-03-31T08:08:12;17.10;99.90
40670;DHT22;26355;45.528;9.234;2023-03-31T08:10:37;17.00;99.90
40670;DHT22;26355;45.528;9.234;2023-03-31T08:13:03;17.20;99.90
40670;DHT22;26355;45.528;9.234;2023-03-31T08:15:29;17.20;99.90
40670;DHT22;26355;45.528;9.234;2023-03-31T08:17:54;17.30;99.90
40670;DHT22;26355;45.528;9.234;2023-03-31T08:20:20;17.30;99.90
40670;DHT22;26355;45.528;9.234;2023-03-31T08:22:45;17.30;99.90
40670;DHT22;26355;45.528;9.234;2023-03-31T08:25:11;17.30;99.90
40670;DHT22;26355;45.528;9.234;2023-03-31T08:27:38;17.30;99.90
40670;DHT22;26355;45.528;9.234;2023-03-31T08:30:06;17.40;99.90
40670;DHT22;26355;45.528;9.234;2023-03-31T08:32:33;17.30;99.90
40670;DHT22;26355;45.528;9.234;2023-03-31T08:34:59;17.30;99.90
40670;DHT22;26355;45.528;9.234;2023-03-31T08:37:25;17.10;99.90
40670;DHT22;26355;45.528;9.234;2023-03-31T08:39:56;16.90;99.90
40670;DHT22;26355;45.528;9.234;2023-03-31T08:42:40;16.80;99.90
40670;DHT22;26355;45.528;9.234;2023-03-31T08:45:22;16.50;99.90
40670;DHT22;26355;45.528;9.234;2023-03-31T08:47:53;16.60;99.90
40670;DHT22;26355;45.528;9.234;2023-03-31T08:50:24;16.60;99.90
40670;DHT22;26355;45.528;9.234;2023-03-31T08:53:18;16.90;99.90
40670;DHT22;26355;45.528;9.234;2023-03-31T08:55:52;16.80;99.90
40670;DHT22;26355;45.528;9.234;2023-03-31T08:58:42;16.80;99.90
40670;DHT22;26355;45.528;9.234;2023-03-31T09:12:29;17.10;99.90
40670;DHT22;26355;45.528;9.234;2023-03-31T09:15:03;17.20;99.90
40670;DHT22;26355;45.528;9.234;2023-03-31T09:17:38;17.40;99.90
40670;DHT22;26355;45.528;9.234;2023-03-31T09:20:21;17.60;99.90
40670;DHT22;26355;45.528;9.234;2023-03-31T09:22:54;17.80;99.90
40670;DHT22;26355;45.528;9.234;2023-03-31T09:25:34;17.70;99.90
40670;DHT22;26355;45.528;9.234;2023-03-31T09:28:03;17.70;99.90
40670;DHT22;26355;45.528;9.234;2023-03-31T09:30:33;17.70;99.90
40670;DHT22;26355;45.528;9.234;2023-03-31T09:33:10;17.70;99.90
40670;DHT22;26355;45.528;9.234;2023-03-31T09:35:38;17.30;99.90
40670;DHT22;26355;45.528;9.234;2023-03-31T09:38:03;17.40;99.90
40670;DHT22;26355;45.528;9.234;2023-03-31T09:40:29;17.40;99.90
40670;DHT22;26355;45.528;9.234;2023-03-31T09:43:19;17.20;99.90
40670;DHT22;26355;45.528;9.234;2023-03-31T09:45:46;17.10;99.90
40670;DHT22;26355;45.528;9.234;2023-03-31T09:48:15;17.00;99.90
40670;DHT22;26355;45.528;9.234;2023-03-31T09:50:49;17.10;99.90
40670;DHT22;26355;45.528;9.234;2023-03-31T09:53:33;17.10;99.90
40670;DHT22;26355;45.528;9.234;2023-03-31T09:56:04;17.10;99.90
40670;DHT22;26355;45.528;9.234;2023-03-31T09:58:43;17.10;99.90
40670;DHT22;26355;45.528;9.234;2023-03-31T10:01:13;17.10;99.90
40670;DHT22;26355;45.528;9.234;2023-03-31T10:04:00;17.20;99.90
40670;DHT22;26355;45.528;9.234;2023-03-31T10:06:29;17.20;99.90
40670;DHT22;26355;45.528;9.234;2023-03-31T10:09:02;17.30;99.90
40670;DHT22;26355;45.528;9.234;2023-03-31T10:11:30;17.20;99.90
40670;DHT22;26355;45.528;9.234;2023-03-31T10:14:46;17.20;99.90
40670;DHT22;26355;45.528;9.234;2023-03-31T10:16:54;17.10;99.90
40670;DHT22;26355;45.528;9.234;2023-03-31T10:19:24;16.90;99.90
40670;DHT22;26355;45.528;9.234;2023-03-31T10:22:02;17.00;99.90
40670;DHT22;26355;45.528;9.234;2023-03-31T10:24:38;17.00;99.90
40670;DHT22;26355;45.528;9.234;2023-03-31T10:27:05;17.00;99.90
40670;DHT22;26355;45.528;9.234;2023-03-31T10:29:33;16.90;99.90
40670;DHT22;26355;45.528;9.234;2023-03-31T10:32:23;16.80;99.90
40670;DHT22;26355;45.528;9.234;2023-03-31T10:34:49;16.70;99.90
40670;DHT22;26355;45.528;9.234;2023-03-31T10:37:18;16.90;99.90
40670;DHT22;26355;45.528;9.234;2023-03-31T10:39:47;17.00;99.90
40670;DHT22;26355;45.528;9.234;2023-03-31T10:42:21;17.10;99.90
40670;DHT22;26355;45.528;9.234;2023-03-31T10:44:47;17.10;99.90
40670;DHT22;26355;45.528;9.234;2023-03-31T10:49:40;17.20;99.90
40670;DHT22;26355;45.528;9.234;2023-03-31T10:54:46;17.30;99.90
40670;DHT22;26355;45.528;9.234;2023-03-31T10:57:12;17.30;99.90
40670;DHT22;26355;45.528;9.234;2023-03-31T11:03:40;17.40;99.90
40670;DHT22;26355;45.528;9.234;2023-03-31T11:05:35;17.40;99.90
40670;DHT22;26355;45.528;9.234;2023-03-31T11:08:10;17.30;99.90
40670;DHT22;26355;45.528;9.234;2023-03-31T11:20:03;17.20;99.90
40670;DHT22;26355;45.528;9.234;2023-03-31T11:25:13;17.20;99.90
40670;DHT22;26355;45.528;9.234;2023-03-31T11:30:56;16.80;99.90
40670;DHT22;26355;45.528;9.234;2023-03-31T11:41:45;16.60;99.90
40670;DHT22;26355;45.528;9.234;2023-03-31T11:44:16;16.40;99.90
40670;DHT22;26355;45.528;9.234;2023-03-31T11:46:50;16.40;99.90
40670;DHT22;26355;45.528;9.234;2023-03-31T11:49:42;16.70;99.90
40670;DHT22;26355;45.528;9.234;2023-03-31T11:52:12;16.80;99.90
40670;DHT22;26355;45.528;9.234;2023-03-31T11:57:22;17.00;99.90
40670;DHT22;26355;45.528;9.234;2023-03-31T11:59:56;17.00;99.90
40670;DHT22;26355;45.528;9.234;2023-03-31T12:02:50;17.00;99.90
40670;DHT22;26355;45.528;9.234;2023-03-31T12:05:18;17.00;99.90
40670;DHT22;26355;45.528;9.234;2023-03-31T12:07:52;16.90;99.90
40670;DHT22;26355;45.528;9.234;2023-03-31T12:10:20;17.00;99.90
40670;DHT22;26355;45.528;9.234;2023-03-31T12:15:50;17.00;99.90
40670;DHT22;26355;45.528;9.234;2023-03-31T12:18:21;17.00;99.90
40670;DHT22;26355;45.528;9.234;2023-03-31T12:20:56;17.10;99.90
40670;DHT22;26355;45.528;9.234;2023-03-31T12:23:27;17.10;99.90
40670;DHT22;26355;45.528;9.234;2023-03-31T12:28:22;17.00;99.90
40670;DHT22;26355;45.528;9.234;2023-03-31T12:30:49;17.10;99.90
40670;DHT22;26355;45.528;9.234;2023-03-31T12:33:23;17.10;99.90
40670;DHT22;26355;45.528;9.234;2023-03-31T12:52:15;17.20;99.90
40670;DHT22;26355;45.528;9.234;2023-03-31T12:57:22;17.10;99.90
40670;DHT22;26355;45.528;9.234;2023-03-31T13:02:39;16.70;99.90
40670;DHT22;26355;45.528;9.234;2023-03-31T13:08:06;16.90;99.90
40670;DHT22;26355;45.528;9.234;2023-03-31T13:10:55;17.00;99.90
40670;DHT22;26355;45.528;9.234;2023-03-31T13:13:19;17.00;99.90
40670;DHT22;26355;45.528;9.234;2023-03-31T13:15:55;16.90;99.90
40670;DHT22;26355;45.528;9.234;2023-03-31T13:18:22;16.90;99.90
40670;DHT22;26355;45.528;9.234;2023-03-31T13:21:03;16.90;99.90
40670;DHT22;26355;45.528;9.234;2023-03-31T13:23:33;16.90;99.90
40670;DHT22;26355;45.528;9.234;2023-03-31T13:25:59;16.90;99.90
40670;DHT22;26355;45.528;9.234;2023-03-31T13:28:31;17.00;99.90
40670;DHT22;26355;45.528;9.234;2023-03-31T13:42:31;17.30;99.90
40670;DHT22;26355;45.528;9.234;2023-03-31T13:48:22;17.10;99.90
40670;DHT22;26355;45.528;9.234;2023-03-31T14:02:41;16.80;99.90
40670;DHT22;26355;45.528;9.234;2023-03-31T14:10:33;16.90;99.90
40670;DHT22;26355;45.528;9.234;2023-03-31T14:13:25;16.90;99.90
40670;DHT22;26355;45.528;9.234;2023-03-31T14:15:58;17.10;99.90
40670;DHT22;26355;45.528;9.234;2023-03-31T14:18:29;17.20;99.90
40670;DHT22;26355;45.528;9.234;2023-03-31T14:24:29;17.20;99.90
40670;DHT22;26355;45.528;9.234;2023-03-31T14:29:54;17.20;99.90
40670;DHT22;26355;45.528;9.234;2023-03-31T14:35:34;17.20;99.90
40670;DHT22;26355;45.528;9.234;2023-03-31T14:38:08;17.30;99.90
40670;DHT22;26355;45.528;9.234;2023-03-31T14:40:44;17.40;99.90
40670;DHT22;26355;45.528;9.234;2023-03-31T14:43:22;17.50;99.90
40670;DHT22;26355;45.528;9.234;2023-03-31T14:46:00;17.50;99.90
40670;DHT22;26355;45.528;9.234;2023-03-31T14:48:27;17.50;99.90
40670;DHT22;26355;45.528;9.234;2023-03-31T14:50:55;17.60;99.90
40670;DHT22;26355;45.528;9.234;2023-03-31T14:53:23;17.60;99.90
40670;DHT22;26355;45.528;9.234;2023-03-31T14:55:50;17.60;99.90
40670;DHT22;26355;45.528;9.234;2023-03-31T14:58:26;17.50;99.90
40670;DHT22;26355;45.528;9.234;2023-03-31T15:00:53;17.50;99.90
40670;DHT22;26355;45.528;9.234;2023-03-31T15:03:19;17.50;99.90
40670;DHT22;26355;45.528;9.234;2023-03-31T15:05:45;17.60;99.90
40670;DHT22;26355;45.528;9.234;2023-03-31T15:08:19;17.60;99.90
40670;DHT22;26355;45.528;9.234;2023-03-31T15:10:52;17.60;99.90
40670;DHT22;26355;45.528;9.234;2023-03-31T15:13:33;17.60;99.90
40670;DHT22;26355;45.528;9.234;2023-03-31T15:16:02;17.60;99.90
40670;DHT22;26355;45.528;9.234;2023-03-31T15:18:43;17.60;99.90
40670;DHT22;26355;45.528;9.234;2023-03-31T15:21:19;18.30;99.90
40670;DHT22;26355;45.528;9.234;2023-03-31T15:23:45;17.60;99.90
40670;DHT22;26355;45.528;9.234;2023-03-31T15:26:11;17.70;99.90
40670;DHT22;26355;45.528;9.234;2023-03-31T15:28:47;17.70;99.90
40670;DHT22;26355;45.528;9.234;2023-03-31T15:31:14;17.70;99.90
40670;DHT22;26355;45.528;9.234;2023-03-31T15:33:40;17.70;99.90
40670;DHT22;26355;45.528;9.234;2023-03-31T15:36:10;17.70;99.90
40670;DHT22;26355;45.528;9.234;2023-03-31T15:38:36;17.60;99.90
40670;DHT22;26355;45.528;9.234;2023-03-31T15:41:21;17.70;99.90
40670;DHT22;26355;45.528;9.234;2023-03-31T15:44:06;17.70;99.90
40670;DHT22;26355;45.528;9.234;2023-03-31T15:49:20;17.60;99.90
40670;DHT22;26355;45.528;9.234;2023-03-31T15:51:46;17.70;99.90
40670;DHT22;26355;45.528;9.234;2023-03-31T15:54:34;17.60;99.90
40670;DHT22;26355;45.528;9.234;2023-03-31T15:57:05;17.50;99.90
40670;DHT22;26355;45.528;9.234;2023-03-31T15:59:46;17.60;99.90
40670;DHT22;26355;45.528;9.234;2023-03-31T16:02:19;17.40;99.90
40670;DHT22;26355;45.528;9.234;2023-03-31T16:04:51;17.50;99.90
40670;DHT22;26355;45.528;9.234;2023-03-31T16:07:24;17.40;99.90
40670;DHT22;26355;45.528;9.234;2023-03-31T16:12:38;17.40;99.90
40670;DHT22;26355;45.528;9.234;2023-03-31T16:15:17;17.40;99.90
40670;DHT22;26355;45.528;9.234;2023-03-31T16:17:57;17.30;99.90
40670;DHT22;26355;45.528;9.234;2023-03-31T16:20:31;17.20;99.90
40670;DHT22;26355;45.528;9.234;2023-03-31T16:23:02;17.20;99.90
40670;DHT22;26355;45.528;9.234;2023-03-31T16:25:38;17.20;99.90
40670;DHT22;26355;45.528;9.234;2023-03-31T16:28:05;17.20;99.90
40670;DHT22;26355;45.528;9.234;2023-03-31T16:30:39;17.20;99.90
40670;DHT22;26355;45.528;9.234;2023-03-31T16:33:06;17.20;99.90
40670;DHT22;26355;45.528;9.234;2023-03-31T16:35:36;17.20;99.90
40670;DHT22;26355;45.528;9.234;2023-03-31T16:38:05;17.10;99.90
40670;DHT22;26355;45.528;9.234;2023-03-31T16:40:45;17.00;99.90
40670;DHT22;26355;45.528;9.234;2023-03-31T16:43:17;17.10;99.90
40670;DHT22;26355;45.528;9.234;2023-03-31T16:45:48;17.00;99.90
40670;DHT22;26355;45.528;9.234;2023-03-31T16:48:15;17.00;99.90
40670;DHT22;26355;45.528;9.234;2023-03-31T16:50:42;17.00;99.90
40670;DHT22;26355;45.528;9.234;2023-03-31T16:53:08;17.00;99.90
40670;DHT22;26355;45.528;9.234;2023-03-31T16:55:35;17.00;99.90
40670;DHT22;26355;45.528;9.234;2023-03-31T16:58:00;17.10;99.90
40670;DHT22;26355;45.528;9.234;2023-03-31T17:00:32;17.00;99.90
40670;DHT22;26355;45.528;9.234;2023-03-31T17:03:02;17.00;99.90
40670;DHT22;26355;45.528;9.234;2023-03-31T17:05:29;17.00;99.90
40670;DHT22;26355;45.528;9.234;2023-03-31T17:07:58;17.00;99.90
40670;DHT22;26355;45.528;9.234;2023-03-31T17:10:24;17.00;99.90
40670;DHT22;26355;45.528;9.234;2023-03-31T17:12:50;17.10;99.90
40670;DHT22;26355;45.528;9.234;2023-03-31T17:15:16;17.10;99.90
40670;DHT22;26355;45.528;9.234;2023-03-31T17:17:42;17.10;99.90
40670;DHT22;26355;45.528;9.234;2023-03-31T17:20:09;17.20;99.90
40670;DHT22;26355;45.528;9.234;2023-03-31T17:22:35;17.20;99.90
40670;DHT22;26355;45.528;9.234;2023-03-31T17:25:01;17.30;99.90
40670;DHT22;26355;45.528;9.234;2023-03-31T17:27:27;17.30;99.90
40670;DHT22;26355;45.528;9.234;2023-03-31T17:29:54;17.30;99.90
40670;DHT22;26355;45.528;9.234;2023-03-31T17:32:20;17.30;99.90
40670;DHT22;26355;45.528;9.234;2023-03-31T17:34:47;17.30;99.90
40670;DHT22;26355;45.528;9.234;2023-03-31T17:37:14;17.40;99.90
40670;DHT22;26355;45.528;9.234;2023-03-31T17:39:41;17.30;99.90
40670;DHT22;26355;45.528;9.234;2023-03-31T17:42:08;17.30;99.90
40670;DHT22;26355;45.528;9.234;2023-03-31T17:44:33;17.30;99.90
40670;DHT22;26355;45.528;9.234;2023-03-31T17:46:59;17.30;99.90
40670;DHT22;26355;45.528;9.234;2023-03-31T17:49:25;17.30;99.90
40670;DHT22;26355;45.528;9.234;2023-03-31T17:51:51;17.30;99.90
40670;DHT22;26355;45.528;9.234;2023-03-31T17:54:18;17.30;99.90
40670;DHT22;26355;45.528;9.234;2023-03-31T17:56:43;17.20;99.90
40670;DHT22;26355;45.528;9.234;2023-03-31T17:59:10;17.20;99.90
40670;DHT22;26355;45.528;9.234;2023-03-31T18:01:36;17.20;99.90
40670;DHT22;26355;45.528;9.234;2023-03-31T18:04:02;17.20;99.90
40670;DHT22;26355;45.528;9.234;2023-03-31T18:06:28;17.20;99.90
40670;DHT22;26355;45.528;9.234;2023-03-31T18:08:55;17.20;99.90
40670;DHT22;26355;45.528;9.234;2023-03-31T18:11:23;17.10;99.90
40670;DHT22;26355;45.528;9.234;2023-03-31T18:13:50;17.20;99.90
40670;DHT22;26355;45.528;9.234;2023-03-31T18:16:15;17.10;99.90
40670;DHT22;26355;45.528;9.234;2023-03-31T18:18:41;17.10;99.90
40670;DHT22;26355;45.528;9.234;2023-03-31T18:21:09;17.00;99.90
40670;DHT22;26355;45.528;9.234;2023-03-31T18:23:36;17.10;99.90
40670;DHT22;26355;45.528;9.234;2023-03-31T18:26:05;17.10;99.90
40670;DHT22;26355;45.528;9.234;2023-03-31T18:28:31;17.10;99.90
40670;DHT22;26355;45.528;9.234;2023-03-31T18:30:56;17.00;99.90
40670;DHT22;26355;45.528;9.234;2023-03-31T18:33:22;17.10;99.90
40670;DHT22;26355;45.528;9.234;2023-03-31T18:35:48;17.20;99.90
40670;DHT22;26355;45.528;9.234;2023-03-31T18:38:14;17.20;99.90
40670;DHT22;26355;45.528;9.234;2023-03-31T18:40:47;17.20;99.90
40670;DHT22;26355;45.528;9.234;2023-03-31T18:43:14;17.20;99.90
40670;DHT22;26355;45.528;9.234;2023-03-31T18:45:39;17.20;99.90
40670;DHT22;26355;45.528;9.234;2023-03-31T18:48:06;17.20;99.90
40670;DHT22;26355;45.528;9.234;2023-03-31T18:50:32;17.10;99.90
40670;DHT22;26355;45.528;9.234;2023-03-31T18:52:57;17.20;99.90